createdAt,value
2022-10-18T00:02:38.372Z,16.33
2022-10-18T00:05:40.726Z,16.12
2022-10-18T00:08:42.789Z,17.85
2022-10-18T00:11:45.226Z,16.17
2022-10-18T00:14:50.839Z,19.48
2022-10-18T00:17:53.297Z,17.35
2022-10-18T00:20:59.116Z,14.65
2022-10-18T00:24:01.493Z,19.37
2022-10-18T00:27:03.574Z,17.20
2022-10-18T00:30:06.703Z,17.00
2022-10-18T00:33:08.755Z,14.75
2022-10-18T00:36:12.049Z,18.58
2022-10-18T00:39:19.325Z,17.50
2022-10-18T00:42:24.054Z,15.02
2022-10-18T00:45:26.468Z,16.42
2022-10-18T00:48:28.807Z,16.30
2022-10-18T00:51:36.611Z,13.57
2022-10-18T00:54:41.655Z,15.82
2022-10-18T00:57:45.014Z,20.08
2022-10-18T01:00:47.436Z,20.48
2022-10-18T01:03:51.210Z,19.10
2022-10-18T01:07:09.508Z,16.85
2022-10-18T01:10:23.896Z,17.92
2022-10-18T01:13:32.108Z,16.83
2022-10-18T01:16:52.425Z,18.40
2022-10-18T01:20:32.258Z,20.37
2022-10-18T01:23:43.307Z,16.95
2022-10-18T01:26:52.839Z,15.00
2022-10-18T01:30:23.388Z,18.25
2022-10-18T01:33:50.936Z,17.67
2022-10-18T01:36:56.518Z,16.73
2022-10-18T01:40:03.579Z,17.25
2022-10-18T01:43:08.308Z,18.70
2022-10-18T01:46:14.519Z,14.27
2022-10-18T01:49:16.729Z,15.50
2022-10-18T01:52:19.078Z,17.08
2022-10-18T01:55:27.995Z,16.87
2022-10-18T01:58:44.830Z,16.23
2022-10-18T02:02:16.194Z,16.23
2022-10-18T02:05:50.629Z,17.58
2022-10-18T02:09:02.804Z,19.10
2022-10-18T02:12:10.480Z,15.77
2022-10-18T02:15:16.258Z,14.30
2022-10-18T02:18:24.384Z,15.77
2022-10-18T02:21:29.521Z,16.92
2022-10-18T02:24:36.720Z,16.17
2022-10-18T02:27:39.094Z,14.90
2022-10-18T02:30:48.647Z,15.82
2022-10-18T02:33:58.040Z,14.50
2022-10-18T02:37:01.855Z,17.23
2022-10-18T02:40:06.064Z,16.87
2022-10-18T02:43:08.429Z,14.50
2022-10-18T02:46:10.746Z,19.17
2022-10-18T02:49:13.163Z,17.52
2022-10-18T02:52:15.279Z,18.10
2022-10-18T02:55:18.168Z,18.05
2022-10-18T02:58:20.267Z,19.98
2022-10-18T03:01:22.700Z,19.40
2022-10-18T03:04:24.819Z,21.05
2022-10-18T03:07:27.278Z,16.30
2022-10-18T03:10:29.353Z,20.10
2022-10-18T03:13:32.195Z,16.90
2022-10-18T03:16:34.282Z,18.40
2022-10-18T03:19:38.522Z,16.92
2022-10-18T03:22:40.655Z,18.65
2022-10-18T03:25:45.691Z,20.12
2022-10-18T03:28:49.150Z,18.23
2022-10-18T03:31:52.786Z,17.75
2022-10-18T03:34:55.008Z,18.92
2022-10-18T03:37:57.533Z,19.85
2022-10-18T03:40:59.654Z,19.60
2022-10-18T03:44:02.199Z,20.35
2022-10-18T03:47:04.309Z,19.92
2022-10-18T03:50:07.098Z,18.65
2022-10-18T03:53:09.231Z,19.87
2022-10-18T03:56:11.631Z,22.25
2022-10-18T03:59:13.766Z,24.35
2022-10-18T04:02:16.116Z,19.95
2022-10-18T04:05:18.446Z,24.58
2022-10-18T04:08:20.820Z,20.98
2022-10-18T04:11:23.172Z,23.33
2022-10-18T04:14:25.318Z,23.77
2022-10-18T04:17:27.668Z,18.62
2022-10-18T04:20:29.824Z,26.40
2022-10-18T04:23:35.049Z,22.10
2022-10-18T04:26:40.050Z,21.83
2022-10-18T04:29:42.431Z,22.23
2022-10-18T04:32:44.491Z,21.48
2022-10-18T04:35:47.612Z,21.90
2022-10-18T04:38:49.706Z,19.00
2022-10-18T04:41:52.115Z,18.35
2022-10-18T04:44:54.184Z,20.62
2022-10-18T04:47:56.614Z,20.95
2022-10-18T04:50:58.731Z,20.58
2022-10-18T04:54:01.077Z,21.92
2022-10-18T04:57:03.571Z,21.10
2022-10-18T05:00:06.559Z,20.83
2022-10-18T05:03:09.144Z,19.87
2022-10-18T05:06:11.543Z,20.40
2022-10-18T05:09:13.826Z,21.33
2022-10-18T05:12:17.167Z,23.23
2022-10-18T05:15:19.266Z,24.95
2022-10-18T05:18:21.970Z,26.05
2022-10-18T05:21:24.054Z,25.37
2022-10-18T05:24:27.766Z,24.85
2022-10-18T05:27:29.963Z,26.67
2022-10-18T05:30:32.410Z,23.92
2022-10-18T05:33:34.755Z,29.75
2022-10-18T05:36:37.129Z,25.85
2022-10-18T05:39:39.242Z,27.98
2022-10-18T05:42:41.643Z,27.30
2022-10-18T05:45:51.061Z,23.58
2022-10-18T05:48:53.413Z,28.25
2022-10-18T05:51:55.540Z,27.13
2022-10-18T05:54:57.981Z,22.27
2022-10-18T05:58:00.101Z,20.52
2022-10-18T06:01:03.155Z,27.98
2022-10-18T06:04:05.755Z,20.30
2022-10-18T06:07:09.444Z,21.17
2022-10-18T06:10:12.697Z,26.60
2022-10-18T06:13:14.874Z,22.98
2022-10-18T06:16:20.169Z,27.10
2022-10-18T06:19:26.008Z,25.02
2022-10-18T06:22:28.474Z,23.27
2022-10-18T06:25:30.654Z,26.20
2022-10-18T06:28:35.412Z,23.58
2022-10-18T06:31:38.209Z,22.73
2022-10-18T06:34:40.565Z,29.12
2022-10-18T06:40:50.074Z,27.52
2022-10-18T06:43:56.713Z,28.27
2022-10-18T06:47:01.219Z,27.52
2022-10-18T06:50:04.034Z,31.35
2022-10-18T06:53:08.557Z,29.15
2022-10-18T06:56:13.117Z,27.70
2022-10-18T06:59:15.890Z,32.17
2022-10-18T07:02:18.037Z,24.67
2022-10-18T07:05:20.788Z,25.88
2022-10-18T07:08:23.071Z,27.17
2022-10-18T07:11:28.690Z,31.10
2022-10-18T07:14:36.082Z,29.15
2022-10-18T07:17:39.640Z,28.27
2022-10-18T07:20:41.734Z,24.65
2022-10-18T07:23:48.774Z,27.58
2022-10-18T07:26:53.126Z,28.17
2022-10-18T07:29:58.246Z,27.52
2022-10-18T07:33:02.616Z,28.30
2022-10-18T07:36:10.075Z,26.00
2022-10-18T07:39:12.633Z,25.58
2022-10-18T07:42:15.066Z,26.60
2022-10-18T07:45:17.404Z,30.05
2022-10-18T07:48:24.464Z,26.48
2022-10-18T07:51:35.492Z,28.73
2022-10-18T07:54:38.625Z,28.02
2022-10-18T07:57:40.837Z,23.75
2022-10-18T08:00:43.481Z,29.20
2022-10-18T08:03:48.745Z,23.12
2022-10-18T08:06:54.122Z,30.85
2022-10-18T08:09:57.588Z,22.80
2022-10-18T08:12:59.688Z,24.08
2022-10-18T08:16:07.806Z,21.62
2022-10-18T08:19:09.879Z,23.92
2022-10-18T08:22:12.204Z,21.80
2022-10-18T08:25:14.387Z,24.60
2022-10-18T08:28:17.386Z,26.05
2022-10-18T08:31:20.117Z,27.80
2022-10-18T08:34:22.626Z,25.92
2022-10-18T08:37:24.742Z,28.42
2022-10-18T08:40:27.878Z,27.92
2022-10-18T08:43:29.950Z,28.58
2022-10-18T08:46:34.863Z,25.12
2022-10-18T08:49:36.828Z,21.73
2022-10-18T08:53:05.357Z,23.73
2022-10-18T08:56:14.606Z,23.38
2022-10-18T08:59:16.993Z,24.45
2022-10-18T09:02:36.230Z,18.83
2022-10-18T09:06:04.054Z,16.25
2022-10-18T09:09:39.105Z,15.10
2022-10-18T09:13:26.584Z,19.02
2022-10-18T09:16:37.606Z,14.52
2022-10-18T09:20:01.257Z,17.87
2022-10-18T09:23:22.962Z,12.82
2022-10-18T09:26:26.010Z,13.88
2022-10-18T09:29:46.111Z,14.05
2022-10-18T09:33:05.040Z,13.30
2022-10-18T09:36:17.717Z,20.20
2022-10-18T09:39:25.875Z,12.35
2022-10-18T09:42:41.402Z,12.55
2022-10-18T09:45:45.698Z,12.43
2022-10-18T09:49:03.640Z,13.93
2022-10-18T09:52:16.046Z,11.93
2022-10-18T09:55:30.806Z,11.52
2022-10-18T09:58:46.426Z,10.45
2022-10-18T10:01:48.534Z,12.60
2022-10-18T10:04:52.137Z,10.85
2022-10-18T10:07:59.850Z,12.23
2022-10-18T10:11:02.420Z,16.30
2022-10-18T10:14:09.048Z,11.38
2022-10-18T10:17:29.839Z,12.32
2022-10-18T10:23:59.292Z,10.10
2022-10-18T10:27:06.957Z,7.85
2022-10-18T10:30:26.665Z,9.13
2022-10-18T10:33:40.399Z,10.90
2022-10-18T10:36:50.772Z,8.90
2022-10-18T10:40:18.351Z,13.88
2022-10-18T10:43:37.466Z,9.20
2022-10-18T10:46:40.014Z,13.30
2022-10-18T10:49:51.657Z,13.65
2022-10-18T10:52:54.456Z,7.97
2022-10-18T10:55:58.713Z,12.30
2022-10-18T10:59:09.041Z,11.68
2022-10-18T11:05:26.914Z,9.18
2022-10-18T11:08:38.755Z,10.90
2022-10-18T11:11:49.870Z,9.40
2022-10-18T11:15:11.745Z,11.10
2022-10-18T11:18:19.868Z,12.50
2022-10-18T11:21:27.615Z,8.50
2022-10-18T11:24:30.684Z,8.93
2022-10-18T11:27:41.027Z,7.18
2022-10-18T11:30:56.489Z,6.18
2022-10-18T11:34:23.919Z,10.52
2022-10-18T11:37:38.378Z,7.43
2022-10-18T11:40:56.397Z,8.57
2022-10-18T11:44:03.700Z,11.57
2022-10-18T11:47:38.540Z,10.30
2022-10-18T11:50:59.994Z,8.10
2022-10-18T11:54:45.271Z,7.60
2022-10-18T11:57:54.486Z,8.52
2022-10-18T12:01:06.403Z,8.25
2022-10-18T12:04:23.769Z,7.70
2022-10-18T12:07:32.804Z,9.13
2022-10-18T12:10:52.556Z,7.55
2022-10-18T12:14:07.255Z,9.30
2022-10-18T12:17:45.117Z,9.25
2022-10-18T12:20:53.013Z,9.82
2022-10-18T12:23:59.970Z,8.18
2022-10-18T12:27:02.656Z,8.55
2022-10-18T12:30:23.669Z,9.77
2022-10-18T12:33:30.230Z,5.50
2022-10-18T12:36:55.205Z,6.97
2022-10-18T12:40:13.401Z,5.12
2022-10-18T12:43:34.126Z,8.63
2022-10-18T12:46:56.020Z,6.95
2022-10-18T12:50:01.474Z,10.88
2022-10-18T12:53:17.102Z,11.50
2022-10-18T12:56:28.196Z,8.70
2022-10-18T12:59:30.165Z,13.62
2022-10-18T13:02:33.320Z,9.95
2022-10-18T13:05:56.235Z,12.35
2022-10-18T13:09:26.551Z,7.57
2022-10-18T13:12:28.530Z,6.95
2022-10-18T13:15:59.625Z,6.03
2022-10-18T13:19:14.050Z,10.48
2022-10-18T13:22:50.812Z,8.43
2022-10-18T13:26:14.968Z,5.47
2022-10-18T13:29:46.723Z,7.10
2022-10-18T13:33:27.639Z,6.32
2022-10-18T13:36:32.820Z,8.60
2022-10-18T13:39:35.628Z,6.97
2022-10-18T13:42:37.971Z,6.75
2022-10-18T13:45:45.435Z,7.45
2022-10-18T13:48:53.371Z,8.32
2022-10-18T13:52:16.873Z,7.10
2022-10-18T13:55:44.519Z,7.37
2022-10-18T13:59:14.521Z,8.35
2022-10-18T14:02:51.822Z,11.27
2022-10-18T14:06:20.120Z,7.15
2022-10-18T14:09:40.222Z,9.00
2022-10-18T14:12:54.566Z,7.18
2022-10-18T14:16:04.290Z,9.50
2022-10-18T14:19:36.747Z,8.13
2022-10-18T14:23:02.889Z,14.85
2022-10-18T14:26:14.704Z,9.10
2022-10-18T14:29:19.592Z,6.93
2022-10-18T14:32:26.658Z,11.45
2022-10-18T14:35:33.317Z,9.07
2022-10-18T14:38:47.163Z,7.55
2022-10-18T14:41:52.326Z,6.75
2022-10-18T14:44:56.497Z,5.82
2022-10-18T14:48:16.253Z,7.75
2022-10-18T14:51:18.708Z,8.98
2022-10-18T14:54:29.134Z,11.27
2022-10-18T14:57:36.844Z,8.90
2022-10-18T15:00:40.429Z,10.43
2022-10-18T15:03:45.146Z,6.03
2022-10-18T15:06:48.467Z,6.00
2022-10-18T15:09:51.534Z,7.05
2022-10-18T15:13:09.207Z,10.13
2022-10-18T15:16:17.580Z,6.95
2022-10-18T15:19:35.910Z,8.35
2022-10-18T15:22:38.263Z,8.80
2022-10-18T15:25:40.371Z,6.32
2022-10-18T15:28:51.271Z,7.78
2022-10-18T15:35:07.340Z,10.57
2022-10-18T15:38:24.622Z,10.38
2022-10-18T15:41:48.837Z,6.30
2022-10-18T15:44:51.399Z,10.18
2022-10-18T15:48:21.174Z,10.45
2022-10-18T15:51:48.005Z,6.32
2022-10-18T15:54:50.357Z,7.30
2022-10-18T15:57:52.470Z,8.05
2022-10-18T16:00:59.017Z,11.32
2022-10-18T16:04:07.077Z,11.05
2022-10-18T16:07:11.327Z,13.60
2022-10-18T16:10:14.449Z,12.60
2022-10-18T16:13:17.574Z,10.35
2022-10-18T16:16:23.215Z,13.00
2022-10-18T16:19:25.285Z,14.13
2022-10-18T16:22:27.694Z,13.00
2022-10-18T16:25:29.747Z,12.82
2022-10-18T16:28:32.131Z,11.27
2022-10-18T16:31:34.636Z,11.95
2022-10-18T16:34:36.987Z,15.15
2022-10-18T16:37:39.911Z,14.32
2022-10-18T16:40:42.273Z,13.50
2022-10-18T16:43:46.991Z,14.52
2022-10-18T16:46:52.395Z,18.10
2022-10-18T16:49:56.157Z,15.02
2022-10-18T16:52:58.486Z,11.82
2022-10-18T16:56:02.366Z,11.40
2022-10-18T16:59:04.741Z,12.35
2022-10-18T17:02:09.219Z,15.13
2022-10-18T17:05:11.656Z,15.05
2022-10-18T17:08:18.964Z,11.93
2022-10-18T17:11:23.429Z,16.95
2022-10-18T17:14:25.533Z,16.73
2022-10-18T17:17:27.982Z,14.35
2022-10-18T17:20:30.074Z,13.50
2022-10-18T17:23:34.057Z,15.70
2022-10-18T17:26:36.141Z,20.35
2022-10-18T17:29:38.748Z,17.17
2022-10-18T17:32:44.543Z,16.33
2022-10-18T17:35:48.410Z,19.27
2022-10-18T17:38:54.379Z,21.12
2022-10-18T17:41:57.642Z,15.13
2022-10-18T17:44:59.797Z,20.48
2022-10-18T17:48:02.205Z,18.40
2022-10-18T17:51:12.282Z,20.05
2022-10-18T17:54:14.753Z,21.85
2022-10-18T17:57:17.028Z,20.27
2022-10-18T18:00:19.423Z,19.85
2022-10-18T18:03:22.036Z,27.80
2022-10-18T18:06:33.996Z,21.83
2022-10-18T18:09:36.420Z,25.73
2022-10-18T18:12:38.663Z,21.25
2022-10-18T18:15:41.099Z,27.23
2022-10-18T18:18:44.140Z,20.77
2022-10-18T18:21:47.191Z,23.62
2022-10-18T18:24:49.296Z,19.85
2022-10-18T18:27:51.649Z,24.65
2022-10-18T18:30:53.715Z,22.67
2022-10-18T18:33:57.859Z,20.35
2022-10-18T18:36:59.975Z,22.00
2022-10-18T18:40:02.307Z,22.77
2022-10-18T18:43:18.932Z,28.10
2022-10-18T18:46:26.873Z,25.83
2022-10-18T18:49:29.020Z,26.30
2022-10-18T18:52:31.697Z,30.15
2022-10-18T18:55:34.504Z,21.60
2022-10-18T18:58:38.552Z,26.67
2022-10-18T19:01:41.721Z,22.85
2022-10-18T19:04:44.106Z,24.15
2022-10-18T19:07:46.161Z,26.87
2022-10-18T19:10:49.486Z,23.23
2022-10-18T19:13:51.681Z,23.77
2022-10-18T19:16:57.487Z,27.05
2022-10-18T19:20:01.084Z,22.55
2022-10-18T19:23:03.474Z,41.30
2022-10-18T19:26:26.503Z,24.73
2022-10-18T19:29:31.309Z,19.17
2022-10-18T19:32:33.405Z,26.85
2022-10-18T19:35:35.737Z,20.08
2022-10-18T19:38:37.812Z,19.48
2022-10-18T19:41:40.294Z,21.30
2022-10-18T19:44:42.434Z,20.45
2022-10-18T19:47:44.779Z,22.50
2022-10-18T19:50:47.725Z,25.70
2022-10-18T19:53:50.455Z,21.75
2022-10-18T19:56:52.782Z,22.50
2022-10-18T19:59:58.406Z,23.58
2022-10-18T20:03:01.241Z,26.55
2022-10-18T20:06:03.920Z,23.58
2022-10-18T20:09:07.526Z,20.92
2022-10-18T20:12:09.852Z,19.87
2022-10-18T20:15:12.054Z,25.00
2022-10-18T20:18:15.120Z,21.23
2022-10-18T20:21:17.249Z,20.27
2022-10-18T20:24:19.567Z,21.92
2022-10-18T20:27:21.662Z,21.12
2022-10-18T20:30:24.016Z,25.17
2022-10-18T20:33:26.110Z,23.00
2022-10-18T20:36:30.045Z,20.77
2022-10-18T20:39:33.474Z,20.37
2022-10-18T20:42:35.806Z,21.92
2022-10-18T20:45:37.866Z,22.55
2022-10-18T20:48:40.223Z,21.60
2022-10-18T20:51:42.782Z,27.15
2022-10-18T20:54:45.130Z,21.77
2022-10-18T20:57:47.196Z,25.65
2022-10-18T21:00:49.518Z,21.45
2022-10-18T21:03:53.561Z,22.70
2022-10-18T21:06:55.993Z,18.42
2022-10-18T21:09:58.316Z,22.35
2022-10-18T21:13:00.692Z,19.20
2022-10-18T21:16:03.870Z,22.30
2022-10-18T21:19:09.846Z,18.83
2022-10-18T21:22:11.977Z,22.08
2022-10-18T21:25:14.481Z,19.52
2022-10-18T21:28:17.222Z,17.80
2022-10-18T21:31:22.398Z,17.60
2022-10-18T21:34:24.847Z,19.27
2022-10-18T21:37:27.197Z,19.62
2022-10-18T21:40:29.412Z,19.58
2022-10-18T21:43:31.734Z,18.75
2022-10-18T21:46:33.821Z,18.42
2022-10-18T21:49:36.215Z,18.33
2022-10-18T21:52:38.328Z,21.95
2022-10-18T21:55:40.651Z,16.60
2022-10-18T21:58:43.618Z,18.02
2022-10-18T22:01:45.978Z,21.40
2022-10-18T22:04:49.618Z,17.30
2022-10-18T22:07:51.683Z,21.73
2022-10-18T22:10:54.679Z,19.12
2022-10-18T22:13:57.238Z,17.65
2022-10-18T22:16:59.589Z,17.45
2022-10-18T22:20:01.648Z,17.77
2022-10-18T22:23:03.966Z,22.13
2022-10-18T22:26:08.993Z,19.83
2022-10-18T22:29:16.883Z,16.35
2022-10-18T22:32:18.976Z,15.63
2022-10-18T22:35:21.436Z,15.70
2022-10-18T22:38:23.791Z,16.05
2022-10-18T22:41:26.359Z,13.10
2022-10-18T22:44:28.505Z,17.50
2022-10-18T22:47:31.091Z,18.45
2022-10-18T22:50:33.317Z,15.88
2022-10-18T22:53:37.305Z,13.32
2022-10-18T22:56:39.394Z,17.60
2022-10-18T22:59:41.752Z,12.93
2022-10-18T23:02:43.914Z,16.95
2022-10-18T23:05:46.815Z,13.57
2022-10-18T23:08:49.864Z,12.50
2022-10-18T23:11:52.934Z,13.98
2022-10-18T23:14:54.997Z,16.85
2022-10-18T23:17:58.396Z,15.27
2022-10-18T23:21:12.038Z,15.27
2022-10-18T23:24:14.398Z,14.07
2022-10-18T23:27:16.444Z,13.07
2022-10-18T23:30:18.909Z,15.35
2022-10-18T23:33:20.994Z,13.55
2022-10-18T23:36:23.838Z,13.80
2022-10-18T23:39:25.890Z,14.75
2022-10-18T23:42:28.243Z,15.50
2022-10-18T23:45:30.297Z,14.40
2022-10-18T23:48:34.090Z,13.50
2022-10-18T23:51:36.153Z,14.75
2022-10-18T23:54:38.563Z,14.02
2022-10-18T23:57:40.759Z,13.85
